createdAt,value
2022-09-02T00:00:09.278Z,12.50
2022-09-02T00:02:39.479Z,12.50
2022-09-02T00:05:08.632Z,12.60
2022-09-02T00:07:37.699Z,12.70
2022-09-02T00:10:06.907Z,12.70
2022-09-02T00:12:35.438Z,12.70
2022-09-02T00:15:04.044Z,12.70
2022-09-02T00:17:32.506Z,12.70
2022-09-02T00:20:02.501Z,12.70
2022-09-02T00:22:32.138Z,12.60
2022-09-02T00:25:00.745Z,12.60
2022-09-02T00:27:29.285Z,12.50
2022-09-02T00:29:57.758Z,12.50
2022-09-02T00:32:26.198Z,12.50
2022-09-02T00:34:56.205Z,12.50
2022-09-02T00:37:27.242Z,12.50
2022-09-02T00:39:56.295Z,12.50
2022-09-02T00:42:25.885Z,12.50
2022-09-02T00:44:54.796Z,12.40
2022-09-02T00:47:23.568Z,12.30
2022-09-02T00:49:55.177Z,12.30
2022-09-02T00:52:30.147Z,12.10
2022-09-02T00:55:01.924Z,11.90
2022-09-02T00:57:35.595Z,11.60
2022-09-02T01:00:09.671Z,11.40
2022-09-02T01:02:40.713Z,11.30
2022-09-02T01:05:11.715Z,11.20
2022-09-02T01:07:43.366Z,11.20
2022-09-02T01:10:15.388Z,11.10
2022-09-02T01:12:44.186Z,11.20
2022-09-02T01:15:14.752Z,11.10
2022-09-02T01:17:48.050Z,11.10
2022-09-02T01:20:24.501Z,11.10
2022-09-02T01:22:57.317Z,11.10
2022-09-02T01:25:28.800Z,11.00
2022-09-02T01:28:01.174Z,11.00
2022-09-02T01:30:30.189Z,10.90
2022-09-02T01:32:58.970Z,10.90
2022-09-02T01:35:27.542Z,10.90
2022-09-02T01:37:58.914Z,10.80
2022-09-02T01:40:29.535Z,10.80
2022-09-02T01:43:01.672Z,10.70
2022-09-02T01:45:30.588Z,10.70
2022-09-02T01:47:59.085Z,10.60
2022-09-02T01:50:28.585Z,10.60
2022-09-02T01:52:59.608Z,10.50
2022-09-02T01:55:28.217Z,10.40
2022-09-02T01:57:57.195Z,10.40
2022-09-02T02:00:29.001Z,10.40
2022-09-02T02:02:58.178Z,10.40
2022-09-02T02:05:27.016Z,10.40
2022-09-02T02:07:55.920Z,10.40
2022-09-02T02:10:26.075Z,10.50
2022-09-02T02:12:54.766Z,10.50
2022-09-02T02:17:53.247Z,10.50
2022-09-02T02:20:22.886Z,10.40
2022-09-02T02:22:52.016Z,10.40
2022-09-02T02:25:20.482Z,10.30
2022-09-02T02:27:53.594Z,10.30
2022-09-02T02:30:23.893Z,10.30
2022-09-02T02:32:52.906Z,10.20
2022-09-02T02:35:23.422Z,10.30
2022-09-02T02:37:52.611Z,10.20
2022-09-02T02:40:24.605Z,10.10
2022-09-02T02:42:55.187Z,10.10
2022-09-02T02:45:26.451Z,10.10
2022-09-02T02:47:55.806Z,10.00
2022-09-02T02:50:26.878Z,10.00
2022-09-02T02:52:56.521Z,10.00
2022-09-02T02:55:27.175Z,10.10
2022-09-02T02:57:59.184Z,10.20
2022-09-02T03:00:29.828Z,10.20
2022-09-02T03:02:59.427Z,10.20
2022-09-02T03:05:28.786Z,10.20
2022-09-02T03:07:59.988Z,10.10
2022-09-02T03:10:28.819Z,10.10
2022-09-02T03:13:00.094Z,10.10
2022-09-02T03:15:29.003Z,10.10
2022-09-02T03:17:58.358Z,10.10
2022-09-02T03:20:27.087Z,10.10
2022-09-02T03:23:00.444Z,10.10
2022-09-02T03:25:35.566Z,10.10
2022-09-02T03:28:09.145Z,10.10
2022-09-02T03:30:38.088Z,10.10
2022-09-02T03:33:06.984Z,10.10
2022-09-02T03:35:40.401Z,10.10
2022-09-02T03:38:10.581Z,10.10
2022-09-02T03:40:40.277Z,10.10
2022-09-02T03:43:10.637Z,10.10
2022-09-02T03:45:41.946Z,10.10
2022-09-02T03:48:14.536Z,10.00
2022-09-02T03:50:47.507Z,9.90
2022-09-02T03:53:20.699Z,9.90
2022-09-02T03:55:55.143Z,9.90
2022-09-02T03:58:28.031Z,9.80
2022-09-02T04:00:58.952Z,9.80
2022-09-02T04:03:28.631Z,9.80
2022-09-02T04:05:57.300Z,9.80
2022-09-02T04:08:29.215Z,9.80
2022-09-02T04:11:05.746Z,9.80
2022-09-02T04:13:37.045Z,9.80
2022-09-02T04:16:10.623Z,9.80
2022-09-02T04:18:39.819Z,9.80
2022-09-02T04:21:08.832Z,9.90
2022-09-02T04:23:39.346Z,10.30
2022-09-02T04:26:10.516Z,10.90
2022-09-02T04:28:40.877Z,11.40
2022-09-02T04:31:12.135Z,11.70
2022-09-02T04:33:42.176Z,12.10
2022-09-02T04:36:17.969Z,12.30
2022-09-02T04:38:51.197Z,12.80
2022-09-02T04:41:24.909Z,13.00
2022-09-02T04:43:59.270Z,13.30
2022-09-02T04:46:34.258Z,14.00
2022-09-02T04:49:06.027Z,14.80
2022-09-02T04:51:35.440Z,15.00
2022-09-02T04:54:06.528Z,15.30
2022-09-02T04:56:35.393Z,15.90
2022-09-02T04:59:07.198Z,15.90
2022-09-02T05:01:37.710Z,16.90
2022-09-02T05:04:12.331Z,17.20
2022-09-02T05:06:46.629Z,16.70
2022-09-02T05:09:21.207Z,17.40
2022-09-02T05:12:03.685Z,17.40
2022-09-02T05:14:42.254Z,17.80
2022-09-02T05:17:11.548Z,18.20
2022-09-02T05:19:43.860Z,18.80
2022-09-02T05:22:12.561Z,19.00
2022-09-02T05:24:44.204Z,19.50
2022-09-02T05:27:16.383Z,19.90
2022-09-02T05:29:47.986Z,19.40
2022-09-02T05:32:20.201Z,19.60
2022-09-02T05:34:50.942Z,19.30
2022-09-02T05:37:19.859Z,18.50
2022-09-02T05:39:50.037Z,18.80
2022-09-02T05:45:16.785Z,20.10
2022-09-02T05:47:46.263Z,20.60
2022-09-02T05:50:16.584Z,20.70
2022-09-02T05:52:47.805Z,21.00
2022-09-02T05:55:18.465Z,22.80
2022-09-02T05:57:47.150Z,23.00
2022-09-02T06:00:18.355Z,23.70
2022-09-02T06:02:59.338Z,22.90
2022-09-02T06:05:33.143Z,22.60
2022-09-02T06:08:09.643Z,21.40
2022-09-02T06:10:42.666Z,21.00
2022-09-02T06:13:13.533Z,21.60
2022-09-02T06:15:45.274Z,20.60
2022-09-02T06:18:15.541Z,20.10
2022-09-02T06:20:48.324Z,21.40
2022-09-02T06:23:18.837Z,20.20
2022-09-02T06:25:50.066Z,20.10
2022-09-02T06:28:19.653Z,20.20
2022-09-02T06:30:51.053Z,20.30
2022-09-02T06:33:24.568Z,21.20
2022-09-02T06:35:53.773Z,21.70
2022-09-02T06:38:22.276Z,22.90
2022-09-02T06:40:54.840Z,21.90
2022-09-02T06:43:41.327Z,21.90
2022-09-02T06:46:22.309Z,22.80
2022-09-02T06:48:53.747Z,22.40
2022-09-02T06:51:26.931Z,23.80
2022-09-02T06:53:56.870Z,22.80
2022-09-02T06:56:29.094Z,22.10
2022-09-02T06:58:58.108Z,20.50
2022-09-02T07:01:44.972Z,19.80
2022-09-02T07:04:35.144Z,19.70
2022-09-02T07:07:06.944Z,18.40
2022-09-02T07:09:40.735Z,18.80
2022-09-02T07:12:15.397Z,19.00
2022-09-02T07:14:50.293Z,18.30
2022-09-02T07:17:25.583Z,17.90
2022-09-02T07:20:00.473Z,17.80
2022-09-02T07:22:32.271Z,17.30
2022-09-02T07:25:03.502Z,17.20
2022-09-02T07:27:33.055Z,17.70
2022-09-02T07:30:02.334Z,17.50
2022-09-02T07:32:34.066Z,17.80
2022-09-02T07:35:06.188Z,17.60
2022-09-02T07:37:37.120Z,17.20
2022-09-02T07:40:11.749Z,17.10
2022-09-02T07:42:40.876Z,17.00
2022-09-02T07:45:10.971Z,16.90
2022-09-02T07:47:43.296Z,16.90
2022-09-02T07:50:17.222Z,17.40
2022-09-02T07:52:50.702Z,17.60
2022-09-02T07:55:19.502Z,17.50
2022-09-02T07:57:48.702Z,17.50
2022-09-02T08:00:18.357Z,17.30
2022-09-02T08:02:51.687Z,17.50
2022-09-02T08:05:26.612Z,17.60
2022-09-02T08:07:55.209Z,17.80
2022-09-02T08:10:25.904Z,18.10
2022-09-02T08:12:54.565Z,18.00
2022-09-02T08:15:23.875Z,17.80
2022-09-02T08:17:53.854Z,17.70
2022-09-02T08:20:22.510Z,17.60
2022-09-02T08:23:00.836Z,17.70
2022-09-02T08:25:39.611Z,17.80
2022-09-02T08:28:08.759Z,17.70
2022-09-02T08:30:37.730Z,18.00
2022-09-02T08:33:07.682Z,17.90
2022-09-02T08:35:36.294Z,17.70
2022-09-02T08:38:04.815Z,17.80
2022-09-02T08:40:38.753Z,17.80
2022-09-02T08:43:24.875Z,17.80
2022-09-02T08:45:55.312Z,18.00
2022-09-02T08:48:34.121Z,18.20
2022-09-02T08:51:07.161Z,18.40
2022-09-02T08:53:42.423Z,18.50
2022-09-02T08:56:13.285Z,18.40
2022-09-02T08:58:46.099Z,18.50
2022-09-02T09:01:24.793Z,18.50
2022-09-02T09:04:13.889Z,18.60
2022-09-02T09:06:53.976Z,18.70
2022-09-02T09:09:29.693Z,18.60
2022-09-02T09:12:10.664Z,18.40
2022-09-02T09:14:49.557Z,18.50
2022-09-02T09:17:26.431Z,18.50
2022-09-02T09:20:03.387Z,18.50
2022-09-02T09:22:37.546Z,18.90
2022-09-02T09:25:11.616Z,19.10
2022-09-02T09:27:41.631Z,19.20
2022-09-02T09:30:15.438Z,19.10
2022-09-02T09:32:47.495Z,18.90
2022-09-02T09:35:18.845Z,18.80
2022-09-02T09:37:49.058Z,19.00
2022-09-02T09:40:27.861Z,19.10
2022-09-02T09:45:35.733Z,19.00
2022-09-02T09:48:24.019Z,19.00
2022-09-02T09:51:16.114Z,19.00
2022-09-02T09:53:45.416Z,18.90
2022-09-02T09:56:32.378Z,19.10
2022-09-02T09:59:09.835Z,19.10
2022-09-02T10:01:38.694Z,19.20
2022-09-02T10:04:32.354Z,19.40
2022-09-02T10:07:00.361Z,19.50
2022-09-02T10:09:34.551Z,19.70
2022-09-02T10:12:05.270Z,20.10
2022-09-02T10:14:37.679Z,20.40
2022-09-02T10:17:28.095Z,20.10
2022-09-02T10:20:04.858Z,20.20
2022-09-02T10:22:59.324Z,20.50
2022-09-02T10:25:38.301Z,20.70
2022-09-02T10:28:16.510Z,20.50
2022-09-02T10:30:56.028Z,20.20
2022-09-02T10:33:35.257Z,20.30
2022-09-02T10:36:17.181Z,20.20
2022-09-02T10:38:50.874Z,20.20
2022-09-02T10:44:34.052Z,20.80
2022-09-02T10:47:04.889Z,20.80
2022-09-02T10:49:59.404Z,20.60
2022-09-02T10:52:39.637Z,20.60
2022-09-02T10:55:18.343Z,20.40
2022-09-02T10:57:52.871Z,20.10
2022-09-02T11:00:23.663Z,19.90
2022-09-02T11:02:59.598Z,19.90
2022-09-02T11:05:31.330Z,19.40
2022-09-02T11:08:05.052Z,19.40
2022-09-02T11:10:39.534Z,19.40
2022-09-02T11:13:12.693Z,19.40
2022-09-02T11:15:48.712Z,19.50
2022-09-02T11:18:24.083Z,19.70
2022-09-02T11:21:04.481Z,19.80
2022-09-02T11:23:39.804Z,20.10
2022-09-02T11:26:18.198Z,20.20
2022-09-02T11:28:55.605Z,20.40
2022-09-02T11:31:32.857Z,20.30
2022-09-02T11:34:06.662Z,20.30
2022-09-02T11:36:39.665Z,20.40
2022-09-02T11:39:12.623Z,20.50
2022-09-02T11:42:22.284Z,20.40
2022-09-02T11:45:10.486Z,20.30
2022-09-02T11:48:06.114Z,20.10
2022-09-02T11:50:48.652Z,20.10
2022-09-02T11:53:22.940Z,20.00
2022-09-02T11:55:57.498Z,20.10
2022-09-02T11:58:36.051Z,20.00
2022-09-02T12:01:29.767Z,19.90
2022-09-02T12:07:34.219Z,20.10
2022-09-02T12:10:06.277Z,19.90
2022-09-02T12:13:07.985Z,19.90
2022-09-02T12:15:40.777Z,19.70
2022-09-02T12:18:14.685Z,19.60
2022-09-02T12:21:07.001Z,19.70
2022-09-02T12:24:11.526Z,19.80
2022-09-02T12:27:10.068Z,19.80
2022-09-02T12:29:39.871Z,19.90
2022-09-02T12:32:10.288Z,20.00
2022-09-02T12:34:56.743Z,20.30
2022-09-02T12:37:54.526Z,20.30
2022-09-02T12:40:32.269Z,20.20
2022-09-02T12:43:05.635Z,20.20
2022-09-02T12:45:35.641Z,20.30
2022-09-02T12:48:14.091Z,20.20
2022-09-02T12:50:57.386Z,20.20
2022-09-02T12:53:35.628Z,20.30
2022-09-02T12:56:07.125Z,20.40
2022-09-02T12:58:40.665Z,20.70
2022-09-02T13:01:19.078Z,20.90
2022-09-02T13:04:24.978Z,21.00
2022-09-02T13:07:23.917Z,20.80
2022-09-02T13:10:13.690Z,20.80
2022-09-02T13:13:20.081Z,20.70
2022-09-02T13:16:13.458Z,20.40
2022-09-02T13:19:16.101Z,20.30
2022-09-02T13:22:19.666Z,20.30
2022-09-02T13:25:14.708Z,20.20
2022-09-02T13:28:14.440Z,19.90
2022-09-02T13:31:11.194Z,20.00
2022-09-02T13:33:42.613Z,20.10
2022-09-02T13:36:20.633Z,20.20
2022-09-02T13:38:50.235Z,20.40
2022-09-02T13:41:30.476Z,20.30
2022-09-02T13:44:10.268Z,20.20
2022-09-02T13:46:46.816Z,20.40
2022-09-02T13:49:27.450Z,20.50
2022-09-02T13:51:58.021Z,20.50
2022-09-02T13:54:35.662Z,20.40
2022-09-02T13:57:07.961Z,20.50
2022-09-02T13:59:38.799Z,20.40
2022-09-02T14:02:23.289Z,20.30
2022-09-02T14:04:57.155Z,20.10
2022-09-02T14:07:32.488Z,19.90
2022-09-02T14:10:05.845Z,19.80
2022-09-02T14:12:37.813Z,19.60
2022-09-02T14:15:08.993Z,19.60
2022-09-02T14:17:38.147Z,19.60
2022-09-02T14:20:17.397Z,19.80
2022-09-02T14:22:54.947Z,20.00
2022-09-02T14:25:27.378Z,20.00
2022-09-02T14:27:58.478Z,19.90
2022-09-02T14:30:32.450Z,19.90
2022-09-02T14:33:24.450Z,19.90
2022-09-02T14:36:01.738Z,20.00
2022-09-02T14:38:35.076Z,20.10
2022-09-02T14:41:06.025Z,20.10
2022-09-02T14:43:44.186Z,20.00
2022-09-02T14:46:27.049Z,19.80
2022-09-02T14:49:01.009Z,19.80
2022-09-02T14:51:36.990Z,19.80
2022-09-02T14:54:08.157Z,19.80
2022-09-02T14:56:51.614Z,19.70
2022-09-02T14:59:20.861Z,19.70
2022-09-02T15:01:51.876Z,19.70
2022-09-02T15:04:21.038Z,19.70
2022-09-02T15:06:50.314Z,19.60
2022-09-02T15:09:20.231Z,19.40
2022-09-02T15:11:52.714Z,19.30
2022-09-02T15:14:21.321Z,19.10
2022-09-02T15:16:50.061Z,19.10
2022-09-02T15:19:18.589Z,19.00
2022-09-02T15:21:47.091Z,19.00
2022-09-02T15:24:15.654Z,19.00
2022-09-02T15:26:45.467Z,19.00
2022-09-02T15:29:14.098Z,19.10
2022-09-02T15:31:42.664Z,19.10
2022-09-02T15:34:11.197Z,19.20
2022-09-02T15:36:39.785Z,19.20
2022-09-02T15:39:08.309Z,19.20
2022-09-02T15:41:37.590Z,19.00
2022-09-02T15:44:09.445Z,19.00
2022-09-02T15:46:38.810Z,18.90
2022-09-02T15:49:09.818Z,18.80
2022-09-02T15:51:40.218Z,18.70
2022-09-02T15:54:13.576Z,18.60
2022-09-02T15:56:47.221Z,18.60
2022-09-02T15:59:20.332Z,18.60
2022-09-02T16:01:51.351Z,18.60
2022-09-02T16:04:20.178Z,18.60
2022-09-02T16:06:52.385Z,18.60
2022-09-02T16:09:21.177Z,18.70
2022-09-02T16:11:52.001Z,18.80
2022-09-02T16:14:23.569Z,18.90
2022-09-02T16:16:55.102Z,19.00
2022-09-02T16:19:29.963Z,19.10
2022-09-02T16:21:59.236Z,19.20
2022-09-02T16:24:28.536Z,19.30
2022-09-02T16:26:57.056Z,19.30
2022-09-02T16:29:28.040Z,19.20
2022-09-02T16:34:46.886Z,19.10
2022-09-02T16:37:15.612Z,19.00
2022-09-02T16:39:45.649Z,18.90
2022-09-02T16:42:14.244Z,18.80
2022-09-02T16:44:51.413Z,18.70
2022-09-02T16:47:20.485Z,18.70
2022-09-02T16:49:49.130Z,18.60
2022-09-02T16:52:17.660Z,18.50
2022-09-02T16:54:46.290Z,18.40
2022-09-02T16:57:14.922Z,18.40
2022-09-02T16:59:44.743Z,18.30
2022-09-02T17:02:13.366Z,18.30
2022-09-02T17:04:42.013Z,18.20
2022-09-02T17:07:10.620Z,18.20
2022-09-02T17:09:39.157Z,18.10
2022-09-02T17:12:07.869Z,18.00
2022-09-02T17:14:36.451Z,17.90
2022-09-02T17:17:06.419Z,17.80
2022-09-02T17:19:34.990Z,17.80
2022-09-02T17:22:03.583Z,17.70
2022-09-02T17:24:32.170Z,17.60
2022-09-02T17:27:01.307Z,17.50
2022-09-02T17:32:21.469Z,17.30
2022-09-02T17:34:51.763Z,17.30
2022-09-02T17:37:21.444Z,17.20
2022-09-02T17:39:50.082Z,17.20
2022-09-02T17:42:18.399Z,17.20
2022-09-02T17:44:46.943Z,17.10
2022-09-02T17:47:18.764Z,17.10
2022-09-02T17:49:49.570Z,17.00
2022-09-02T17:52:23.355Z,17.00
2022-09-02T17:54:53.909Z,17.00
2022-09-02T17:57:28.451Z,16.90
2022-09-02T18:00:08.140Z,16.90
2022-09-02T18:03:14.588Z,16.90
2022-09-02T18:05:55.699Z,16.80
2022-09-02T18:08:37.286Z,16.80
2022-09-02T18:11:07.973Z,16.80
2022-09-02T18:13:48.167Z,16.70
2022-09-02T18:16:33.572Z,16.70
2022-09-02T18:19:13.733Z,16.70
2022-09-02T18:21:59.534Z,16.60
2022-09-02T18:24:47.050Z,16.60
2022-09-02T18:27:20.829Z,16.60
2022-09-02T18:30:07.322Z,16.50
2022-09-02T18:32:59.899Z,16.50
2022-09-02T18:35:39.985Z,16.50
2022-09-02T18:38:17.433Z,16.40
2022-09-02T18:41:08.177Z,16.40
2022-09-02T18:43:47.531Z,16.40
2022-09-02T18:46:18.531Z,16.30
2022-09-02T18:48:53.249Z,16.30
2022-09-02T18:51:26.622Z,16.30
2022-09-02T18:54:00.261Z,16.20
2022-09-02T18:56:32.837Z,16.30
2022-09-02T18:59:10.920Z,16.20
2022-09-02T19:01:46.197Z,16.30
2022-09-02T19:04:16.285Z,16.20
2022-09-02T19:06:44.994Z,16.30
2022-09-02T19:09:15.354Z,16.30
2022-09-02T19:11:43.983Z,16.30
2022-09-02T19:14:27.119Z,16.30
2022-09-02T19:16:57.803Z,16.40
2022-09-02T19:19:27.655Z,16.40
2022-09-02T19:22:00.224Z,16.40
2022-09-02T19:24:35.202Z,16.40
2022-09-02T19:27:06.888Z,16.50
2022-09-02T19:29:38.475Z,16.50
2022-09-02T19:32:07.445Z,16.50
2022-09-02T19:34:41.011Z,16.50
2022-09-02T19:37:11.894Z,16.50
2022-09-02T19:39:42.410Z,16.50
2022-09-02T19:42:11.165Z,16.60
2022-09-02T19:44:41.355Z,16.60
2022-09-02T19:50:00.657Z,16.50
2022-09-02T19:52:29.303Z,16.60
2022-09-02T19:54:59.542Z,16.60
2022-09-02T19:57:29.458Z,16.50
2022-09-02T19:59:58.354Z,16.50
2022-09-02T20:02:26.920Z,16.50
2022-09-02T20:04:55.426Z,16.50
2022-09-02T20:07:23.901Z,16.50
2022-09-02T20:09:52.522Z,16.40
2022-09-02T20:12:22.507Z,16.40
2022-09-02T20:14:51.081Z,16.40
2022-09-02T20:17:22.002Z,16.40
2022-09-02T20:19:50.941Z,16.40
2022-09-02T20:22:20.316Z,16.40
2022-09-02T20:24:48.843Z,16.40
2022-09-02T20:27:30.673Z,16.30
2022-09-02T20:30:06.604Z,16.30
2022-09-02T20:32:51.885Z,16.30
2022-09-02T20:35:44.402Z,16.20
2022-09-02T20:38:40.116Z,16.10
2022-09-02T20:41:16.135Z,16.10
2022-09-02T20:44:06.641Z,16.10
2022-09-02T20:46:48.194Z,16.00
2022-09-02T20:49:28.342Z,16.00
2022-09-02T20:52:03.570Z,16.00
2022-09-02T20:54:40.455Z,15.90
2022-09-02T20:57:22.838Z,15.90
2022-09-02T21:00:03.056Z,15.90
2022-09-02T21:02:40.788Z,15.90
2022-09-02T21:05:14.032Z,15.90
2022-09-02T21:07:57.997Z,15.80
2022-09-02T21:10:32.945Z,15.80
2022-09-02T21:13:16.791Z,15.80
2022-09-02T21:15:50.692Z,15.70
2022-09-02T21:18:27.510Z,15.70
2022-09-02T21:21:02.794Z,15.60
2022-09-02T21:23:36.622Z,15.60
2022-09-02T21:26:13.004Z,15.50
2022-09-02T21:28:47.714Z,15.50
2022-09-02T21:31:26.165Z,15.40
2022-09-02T21:33:57.234Z,15.30
2022-09-02T21:36:29.740Z,15.30
2022-09-02T21:39:03.977Z,15.20
2022-09-02T21:41:34.979Z,15.10
2022-09-02T21:44:11.489Z,15.10
2022-09-02T21:46:59.156Z,15.10
2022-09-02T21:49:40.726Z,15.10
2022-09-02T21:52:18.391Z,15.10
2022-09-02T21:54:59.079Z,15.00
2022-09-02T21:57:44.487Z,15.00
2022-09-02T22:00:16.112Z,15.00
2022-09-02T22:02:58.006Z,15.00
2022-09-02T22:05:44.888Z,14.90
2022-09-02T22:08:20.870Z,14.90
2022-09-02T22:11:00.554Z,14.90
2022-09-02T22:13:33.029Z,14.90
2022-09-02T22:16:15.000Z,14.90
2022-09-02T22:18:50.456Z,14.90
2022-09-02T22:21:25.172Z,14.90
2022-09-02T22:23:54.584Z,14.80
2022-09-02T22:26:35.078Z,14.80
2022-09-02T22:29:08.125Z,14.80
2022-09-02T22:31:40.419Z,14.70
2022-09-02T22:34:10.729Z,14.70
2022-09-02T22:36:58.388Z,14.70
2022-09-02T22:39:34.231Z,14.60
2022-09-02T22:42:11.089Z,14.60
2022-09-02T22:45:03.073Z,14.60
2022-09-02T22:47:53.872Z,14.60
2022-09-02T22:50:49.782Z,14.50
2022-09-02T22:53:18.382Z,14.50
2022-09-02T22:56:03.196Z,14.40
2022-09-02T22:58:55.373Z,14.30
2022-09-02T23:01:34.262Z,14.30
2022-09-02T23:04:19.245Z,14.20
2022-09-02T23:06:49.228Z,14.10
2022-09-02T23:09:18.649Z,14.10
2022-09-02T23:11:57.327Z,14.10
2022-09-02T23:14:35.693Z,14.00
2022-09-02T23:17:23.797Z,14.00
2022-09-02T23:20:06.598Z,13.90
2022-09-02T23:22:53.348Z,13.80
2022-09-02T23:25:40.286Z,13.80
2022-09-02T23:28:15.478Z,13.70
2022-09-02T23:30:53.506Z,13.70
2022-09-02T23:33:44.475Z,13.60
2022-09-02T23:36:20.362Z,13.60
2022-09-02T23:39:10.195Z,13.60
2022-09-02T23:41:38.981Z,13.50
2022-09-02T23:44:08.797Z,13.50
2022-09-02T23:46:49.965Z,13.50
2022-09-02T23:49:26.364Z,13.40
2022-09-02T23:52:06.137Z,13.40
2022-09-02T23:54:50.586Z,13.40
2022-09-02T23:57:42.658Z,13.30
